sensor_id;sensor_type;location;lat;lon;timestamp;P1;durP1;ratioP1;P2;durP2;ratioP2
11582;SDS011;34299;50.820;4.548;2024-02-14T00:01:12;2.63;;;2.43;;
11582;SDS011;34299;50.820;4.548;2024-02-14T00:03:39;3.50;;;2.37;;
11582;SDS011;34299;50.820;4.548;2024-02-14T00:06:06;2.73;;;2.53;;
11582;SDS011;34299;50.820;4.548;2024-02-14T00:08:33;4.17;;;2.60;;
11582;SDS011;34299;50.820;4.548;2024-02-14T00:11:00;4.97;;;2.70;;
11582;SDS011;34299;50.820;4.548;2024-02-14T00:13:27;2.90;;;2.60;;
11582;SDS011;34299;50.820;4.548;2024-02-14T00:15:54;3.00;;;2.50;;
11582;SDS011;34299;50.820;4.548;2024-02-14T00:18:23;3.17;;;2.70;;
11582;SDS011;34299;50.820;4.548;2024-02-14T00:20:50;4.03;;;2.40;;
11582;SDS011;34299;50.820;4.548;2024-02-14T00:23:17;3.50;;;2.33;;
11582;SDS011;34299;50.820;4.548;2024-02-14T00:25:44;4.20;;;2.47;;
11582;SDS011;34299;50.820;4.548;2024-02-14T00:28:11;5.43;;;2.63;;
11582;SDS011;34299;50.820;4.548;2024-02-14T00:30:38;4.10;;;2.33;;
11582;SDS011;34299;50.820;4.548;2024-02-14T00:33:05;4.07;;;2.47;;
11582;SDS011;34299;50.820;4.548;2024-02-14T00:35:33;4.97;;;2.47;;
11582;SDS011;34299;50.820;4.548;2024-02-14T00:38:00;4.67;;;2.77;;
11582;SDS011;34299;50.820;4.548;2024-02-14T00:40:27;3.47;;;2.30;;
11582;SDS011;34299;50.820;4.548;2024-02-14T00:42:54;4.77;;;2.40;;
11582;SDS011;34299;50.820;4.548;2024-02-14T00:45:20;4.07;;;2.73;;
11582;SDS011;34299;50.820;4.548;2024-02-14T00:47:47;6.43;;;2.40;;
11582;SDS011;34299;50.820;4.548;2024-02-14T00:50:14;2.37;;;2.10;;
11582;SDS011;34299;50.820;4.548;2024-02-14T00:52:43;7.10;;;2.33;;
11582;SDS011;34299;50.820;4.548;2024-02-14T00:55:09;2.80;;;2.40;;
11582;SDS011;34299;50.820;4.548;2024-02-14T00:57:37;2.83;;;2.33;;
11582;SDS011;34299;50.820;4.548;2024-02-14T01:00:04;4.33;;;2.40;;
11582;SDS011;34299;50.820;4.548;2024-02-14T01:02:32;3.73;;;2.27;;
11582;SDS011;34299;50.820;4.548;2024-02-14T01:04:59;3.67;;;2.33;;
11582;SDS011;34299;50.820;4.548;2024-02-14T01:07:26;2.90;;;2.37;;
11582;SDS011;34299;50.820;4.548;2024-02-14T01:09:55;3.23;;;2.20;;
11582;SDS011;34299;50.820;4.548;2024-02-14T01:12:22;2.77;;;2.40;;
11582;SDS011;34299;50.820;4.548;2024-02-14T01:14:48;3.30;;;2.70;;
11582;SDS011;34299;50.820;4.548;2024-02-14T01:17:15;3.50;;;2.20;;
11582;SDS011;34299;50.820;4.548;2024-02-14T01:19:42;3.13;;;2.30;;
11582;SDS011;34299;50.820;4.548;2024-02-14T01:22:09;2.60;;;2.40;;
11582;SDS011;34299;50.820;4.548;2024-02-14T01:24:36;3.77;;;2.53;;
11582;SDS011;34299;50.820;4.548;2024-02-14T01:27:05;2.83;;;2.20;;
11582;SDS011;34299;50.820;4.548;2024-02-14T01:29:33;3.50;;;2.80;;
11582;SDS011;34299;50.820;4.548;2024-02-14T01:32:00;4.20;;;3.00;;
11582;SDS011;34299;50.820;4.548;2024-02-14T01:34:29;2.33;;;2.13;;
11582;SDS011;34299;50.820;4.548;2024-02-14T01:36:56;3.43;;;2.63;;
11582;SDS011;34299;50.820;4.548;2024-02-14T01:39:23;6.53;;;2.80;;
11582;SDS011;34299;50.820;4.548;2024-02-14T01:41:50;6.23;;;2.60;;
11582;SDS011;34299;50.820;4.548;2024-02-14T01:44:18;4.17;;;2.60;;
11582;SDS011;34299;50.820;4.548;2024-02-14T01:46:45;5.03;;;3.00;;
11582;SDS011;34299;50.820;4.548;2024-02-14T01:49:12;2.87;;;2.40;;
11582;SDS011;34299;50.820;4.548;2024-02-14T01:51:42;3.23;;;2.50;;
11582;SDS011;34299;50.820;4.548;2024-02-14T01:54:11;4.60;;;2.67;;
11582;SDS011;34299;50.820;4.548;2024-02-14T01:56:39;4.67;;;3.23;;
11582;SDS011;34299;50.820;4.548;2024-02-14T01:59:06;4.57;;;2.70;;
11582;SDS011;34299;50.820;4.548;2024-02-14T02:01:35;4.37;;;2.73;;
11582;SDS011;34299;50.820;4.548;2024-02-14T02:04:02;3.07;;;2.80;;
11582;SDS011;34299;50.820;4.548;2024-02-14T02:06:31;3.10;;;2.70;;
11582;SDS011;34299;50.820;4.548;2024-02-14T02:08:59;4.73;;;2.60;;
11582;SDS011;34299;50.820;4.548;2024-02-14T02:11:26;3.60;;;3.27;;
11582;SDS011;34299;50.820;4.548;2024-02-14T02:13:53;5.77;;;2.57;;
11582;SDS011;34299;50.820;4.548;2024-02-14T02:16:20;5.13;;;3.00;;
11582;SDS011;34299;50.820;4.548;2024-02-14T02:18:49;5.23;;;3.00;;
11582;SDS011;34299;50.820;4.548;2024-02-14T02:21:16;3.47;;;2.83;;
11582;SDS011;34299;50.820;4.548;2024-02-14T02:23:50;5.40;;;2.90;;
11582;SDS011;34299;50.820;4.548;2024-02-14T02:26:17;3.90;;;2.90;;
11582;SDS011;34299;50.820;4.548;2024-02-14T02:28:44;5.13;;;2.80;;
11582;SDS011;34299;50.820;4.548;2024-02-14T02:31:12;5.67;;;3.03;;
11582;SDS011;34299;50.820;4.548;2024-02-14T02:33:38;3.73;;;3.20;;
11582;SDS011;34299;50.820;4.548;2024-02-14T02:36:05;4.40;;;3.10;;
11582;SDS011;34299;50.820;4.548;2024-02-14T02:38:34;3.30;;;2.90;;
11582;SDS011;34299;50.820;4.548;2024-02-14T02:41:03;5.27;;;3.30;;
11582;SDS011;34299;50.820;4.548;2024-02-14T02:43:31;5.70;;;3.03;;
11582;SDS011;34299;50.820;4.548;2024-02-14T02:45:58;5.10;;;2.93;;
11582;SDS011;34299;50.820;4.548;2024-02-14T02:48:25;3.40;;;2.80;;
11582;SDS011;34299;50.820;4.548;2024-02-14T02:50:52;5.77;;;3.50;;
11582;SDS011;34299;50.820;4.548;2024-02-14T02:53:19;5.03;;;3.40;;
11582;SDS011;34299;50.820;4.548;2024-02-14T02:55:46;3.90;;;3.50;;
11582;SDS011;34299;50.820;4.548;2024-02-14T02:58:18;5.17;;;3.53;;
11582;SDS011;34299;50.820;4.548;2024-02-14T03:00:46;4.87;;;3.47;;
11582;SDS011;34299;50.820;4.548;2024-02-14T03:03:14;6.13;;;3.70;;
11582;SDS011;34299;50.820;4.548;2024-02-14T03:05:41;4.43;;;3.73;;
11582;SDS011;34299;50.820;4.548;2024-02-14T03:08:09;4.03;;;3.63;;
11582;SDS011;34299;50.820;4.548;2024-02-14T03:10:38;7.50;;;4.73;;
11582;SDS011;34299;50.820;4.548;2024-02-14T03:13:06;8.93;;;4.77;;
11582;SDS011;34299;50.820;4.548;2024-02-14T03:15:35;4.60;;;4.20;;
11582;SDS011;34299;50.820;4.548;2024-02-14T03:18:02;5.33;;;4.00;;
11582;SDS011;34299;50.820;4.548;2024-02-14T03:20:32;5.03;;;3.77;;
11582;SDS011;34299;50.820;4.548;2024-02-14T03:23:00;5.13;;;3.70;;
11582;SDS011;34299;50.820;4.548;2024-02-14T03:25:28;7.47;;;4.30;;
11582;SDS011;34299;50.820;4.548;2024-02-14T03:27:55;5.90;;;3.73;;
11582;SDS011;34299;50.820;4.548;2024-02-14T03:30:23;7.63;;;3.90;;
11582;SDS011;34299;50.820;4.548;2024-02-14T03:32:52;6.37;;;4.00;;
11582;SDS011;34299;50.820;4.548;2024-02-14T03:35:20;4.50;;;3.70;;
11582;SDS011;34299;50.820;4.548;2024-02-14T03:37:48;5.07;;;3.63;;
11582;SDS011;34299;50.820;4.548;2024-02-14T03:40:17;7.40;;;4.30;;
11582;SDS011;34299;50.820;4.548;2024-02-14T03:42:45;6.50;;;4.33;;
11582;SDS011;34299;50.820;4.548;2024-02-14T03:45:12;4.30;;;3.80;;
11582;SDS011;34299;50.820;4.548;2024-02-14T03:47:40;6.20;;;4.20;;
11582;SDS011;34299;50.820;4.548;2024-02-14T03:50:08;7.40;;;4.20;;
11582;SDS011;34299;50.820;4.548;2024-02-14T03:52:35;6.40;;;3.87;;
11582;SDS011;34299;50.820;4.548;2024-02-14T03:55:02;7.13;;;4.47;;
11582;SDS011;34299;50.820;4.548;2024-02-14T03:57:31;6.53;;;4.43;;
11582;SDS011;34299;50.820;4.548;2024-02-14T04:00:00;6.43;;;4.63;;
11582;SDS011;34299;50.820;4.548;2024-02-14T04:02:28;6.97;;;4.33;;
11582;SDS011;34299;50.820;4.548;2024-02-14T04:04:54;7.17;;;4.10;;
11582;SDS011;34299;50.820;4.548;2024-02-14T04:07:23;8.47;;;4.67;;
11582;SDS011;34299;50.820;4.548;2024-02-14T04:09:50;5.87;;;4.07;;
11582;SDS011;34299;50.820;4.548;2024-02-14T04:12:17;7.10;;;5.03;;
11582;SDS011;34299;50.820;4.548;2024-02-14T04:14:44;13.50;;;5.27;;
11582;SDS011;34299;50.820;4.548;2024-02-14T04:17:11;8.10;;;4.57;;
11582;SDS011;34299;50.820;4.548;2024-02-14T04:19:39;6.10;;;4.63;;
11582;SDS011;34299;50.820;4.548;2024-02-14T04:22:06;6.23;;;4.40;;
11582;SDS011;34299;50.820;4.548;2024-02-14T04:24:34;7.53;;;5.33;;
11582;SDS011;34299;50.820;4.548;2024-02-14T04:27:02;5.13;;;4.20;;
11582;SDS011;34299;50.820;4.548;2024-02-14T04:29:29;7.40;;;4.50;;
11582;SDS011;34299;50.820;4.548;2024-02-14T04:31:58;6.37;;;4.60;;
11582;SDS011;34299;50.820;4.548;2024-02-14T04:34:25;5.43;;;4.40;;
11582;SDS011;34299;50.820;4.548;2024-02-14T04:36:52;6.03;;;5.33;;
11582;SDS011;34299;50.820;4.548;2024-02-14T04:39:19;7.67;;;4.40;;
11582;SDS011;34299;50.820;4.548;2024-02-14T04:41:47;6.93;;;5.10;;
11582;SDS011;34299;50.820;4.548;2024-02-14T04:44:15;7.30;;;5.80;;
11582;SDS011;34299;50.820;4.548;2024-02-14T04:46:42;7.60;;;5.17;;
11582;SDS011;34299;50.820;4.548;2024-02-14T04:49:09;7.10;;;5.23;;
11582;SDS011;34299;50.820;4.548;2024-02-14T04:51:36;9.43;;;5.30;;
11582;SDS011;34299;50.820;4.548;2024-02-14T04:54:03;10.73;;;5.83;;
11582;SDS011;34299;50.820;4.548;2024-02-14T04:56:31;7.00;;;4.97;;
11582;SDS011;34299;50.820;4.548;2024-02-14T04:58:59;6.53;;;4.90;;
11582;SDS011;34299;50.820;4.548;2024-02-14T05:01:27;9.23;;;5.43;;
11582;SDS011;34299;50.820;4.548;2024-02-14T05:03:54;7.83;;;5.67;;
11582;SDS011;34299;50.820;4.548;2024-02-14T05:06:21;9.63;;;5.87;;
11582;SDS011;34299;50.820;4.548;2024-02-14T05:08:48;10.87;;;5.10;;
11582;SDS011;34299;50.820;4.548;2024-02-14T05:11:16;7.93;;;5.23;;
11582;SDS011;34299;50.820;4.548;2024-02-14T05:13:43;10.53;;;6.10;;
11582;SDS011;34299;50.820;4.548;2024-02-14T05:16:13;7.40;;;5.17;;
11582;SDS011;34299;50.820;4.548;2024-02-14T05:18:40;8.23;;;6.03;;
11582;SDS011;34299;50.820;4.548;2024-02-14T05:21:07;10.00;;;5.97;;
11582;SDS011;34299;50.820;4.548;2024-02-14T05:23:34;11.80;;;6.20;;
11582;SDS011;34299;50.820;4.548;2024-02-14T05:26:02;7.77;;;5.27;;
11582;SDS011;34299;50.820;4.548;2024-02-14T05:28:29;10.40;;;5.67;;
11582;SDS011;34299;50.820;4.548;2024-02-14T05:30:56;6.00;;;4.50;;
11582;SDS011;34299;50.820;4.548;2024-02-14T05:33:25;8.13;;;5.77;;
11582;SDS011;34299;50.820;4.548;2024-02-14T05:35:52;9.07;;;6.17;;
11582;SDS011;34299;50.820;4.548;2024-02-14T05:38:19;8.47;;;6.03;;
11582;SDS011;34299;50.820;4.548;2024-02-14T05:40:46;7.27;;;6.13;;
11582;SDS011;34299;50.820;4.548;2024-02-14T05:43:13;8.70;;;6.60;;
11582;SDS011;34299;50.820;4.548;2024-02-14T05:45:41;7.97;;;5.80;;
11582;SDS011;34299;50.820;4.548;2024-02-14T05:48:08;8.23;;;5.60;;
11582;SDS011;34299;50.820;4.548;2024-02-14T05:50:36;6.90;;;6.10;;
11582;SDS011;34299;50.820;4.548;2024-02-14T05:53:03;6.50;;;5.33;;
11582;SDS011;34299;50.820;4.548;2024-02-14T05:55:31;9.13;;;5.77;;
11582;SDS011;34299;50.820;4.548;2024-02-14T05:57:58;9.40;;;6.13;;
11582;SDS011;34299;50.820;4.548;2024-02-14T06:00:25;6.67;;;5.63;;
11582;SDS011;34299;50.820;4.548;2024-02-14T06:02:52;11.73;;;6.17;;
11582;SDS011;34299;50.820;4.548;2024-02-14T06:05:19;7.37;;;5.50;;
11582;SDS011;34299;50.820;4.548;2024-02-14T06:07:48;7.20;;;5.03;;
11582;SDS011;34299;50.820;4.548;2024-02-14T06:10:15;8.07;;;5.33;;
11582;SDS011;34299;50.820;4.548;2024-02-14T06:12:43;7.70;;;5.67;;
11582;SDS011;34299;50.820;4.548;2024-02-14T06:15:10;8.77;;;6.10;;
11582;SDS011;34299;50.820;4.548;2024-02-14T06:17:37;12.23;;;6.13;;
11582;SDS011;34299;50.820;4.548;2024-02-14T06:20:04;10.13;;;5.30;;
11582;SDS011;34299;50.820;4.548;2024-02-14T06:22:32;7.50;;;5.13;;
11582;SDS011;34299;50.820;4.548;2024-02-14T06:25:00;10.80;;;6.67;;
11582;SDS011;34299;50.820;4.548;2024-02-14T06:27:30;6.47;;;5.23;;
11582;SDS011;34299;50.820;4.548;2024-02-14T06:29:58;9.47;;;5.10;;
11582;SDS011;34299;50.820;4.548;2024-02-14T06:32:25;7.67;;;5.40;;
11582;SDS011;34299;50.820;4.548;2024-02-14T06:34:51;7.60;;;5.67;;
11582;SDS011;34299;50.820;4.548;2024-02-14T06:37:18;12.07;;;5.40;;
11582;SDS011;34299;50.820;4.548;2024-02-14T06:39:45;6.50;;;4.90;;
11582;SDS011;34299;50.820;4.548;2024-02-14T06:42:14;8.73;;;5.80;;
11582;SDS011;34299;50.820;4.548;2024-02-14T06:44:41;9.17;;;6.13;;
11582;SDS011;34299;50.820;4.548;2024-02-14T06:47:08;7.63;;;4.70;;
11582;SDS011;34299;50.820;4.548;2024-02-14T06:49:35;9.33;;;5.40;;
11582;SDS011;34299;50.820;4.548;2024-02-14T06:52:03;7.57;;;5.63;;
11582;SDS011;34299;50.820;4.548;2024-02-14T06:54:30;6.23;;;4.80;;
11582;SDS011;34299;50.820;4.548;2024-02-14T06:56:57;12.63;;;5.43;;
11582;SDS011;34299;50.820;4.548;2024-02-14T06:59:26;8.83;;;5.73;;
11582;SDS011;34299;50.820;4.548;2024-02-14T07:01:53;9.30;;;5.90;;
11582;SDS011;34299;50.820;4.548;2024-02-14T07:04:20;9.00;;;5.20;;
11582;SDS011;34299;50.820;4.548;2024-02-14T07:06:50;11.37;;;5.87;;
11582;SDS011;34299;50.820;4.548;2024-02-14T07:09:18;6.90;;;4.63;;
11582;SDS011;34299;50.820;4.548;2024-02-14T07:11:45;8.30;;;5.33;;
11582;SDS011;34299;50.820;4.548;2024-02-14T07:14:12;10.93;;;5.60;;
11582;SDS011;34299;50.820;4.548;2024-02-14T07:16:40;8.87;;;5.20;;
11582;SDS011;34299;50.820;4.548;2024-02-14T07:19:07;7.90;;;5.80;;
11582;SDS011;34299;50.820;4.548;2024-02-14T07:21:34;9.10;;;5.43;;
11582;SDS011;34299;50.820;4.548;2024-02-14T07:24:03;7.60;;;5.27;;
11582;SDS011;34299;50.820;4.548;2024-02-14T07:26:30;9.40;;;5.17;;
11582;SDS011;34299;50.820;4.548;2024-02-14T07:28:57;7.23;;;5.13;;
11582;SDS011;34299;50.820;4.548;2024-02-14T07:31:28;6.33;;;4.43;;
11582;SDS011;34299;50.820;4.548;2024-02-14T07:33:57;8.80;;;5.23;;
11582;SDS011;34299;50.820;4.548;2024-02-14T07:36:25;8.93;;;5.27;;
11582;SDS011;34299;50.820;4.548;2024-02-14T07:38:52;8.67;;;5.77;;
11582;SDS011;34299;50.820;4.548;2024-02-14T07:41:19;8.23;;;5.10;;
11582;SDS011;34299;50.820;4.548;2024-02-14T07:43:46;6.80;;;5.10;;
11582;SDS011;34299;50.820;4.548;2024-02-14T07:46:16;6.80;;;4.73;;
11582;SDS011;34299;50.820;4.548;2024-02-14T07:48:43;7.53;;;5.20;;
11582;SDS011;34299;50.820;4.548;2024-02-14T07:51:12;7.37;;;5.30;;
11582;SDS011;34299;50.820;4.548;2024-02-14T07:53:39;6.97;;;4.90;;
11582;SDS011;34299;50.820;4.548;2024-02-14T07:56:06;9.00;;;4.97;;
11582;SDS011;34299;50.820;4.548;2024-02-14T07:58:33;11.87;;;5.50;;
11582;SDS011;34299;50.820;4.548;2024-02-14T08:01:00;7.13;;;4.50;;
11582;SDS011;34299;50.820;4.548;2024-02-14T08:03:29;7.40;;;5.70;;
11582;SDS011;34299;50.820;4.548;2024-02-14T08:05:56;6.97;;;5.10;;
11582;SDS011;34299;50.820;4.548;2024-02-14T08:08:25;8.40;;;5.33;;
11582;SDS011;34299;50.820;4.548;2024-02-14T08:10:53;8.60;;;5.03;;
11582;SDS011;34299;50.820;4.548;2024-02-14T08:13:20;8.07;;;5.70;;
11582;SDS011;34299;50.820;4.548;2024-02-14T08:15:47;8.73;;;5.90;;
11582;SDS011;34299;50.820;4.548;2024-02-14T08:18:14;6.03;;;4.60;;
11582;SDS011;34299;50.820;4.548;2024-02-14T08:20:41;9.20;;;5.40;;
11582;SDS011;34299;50.820;4.548;2024-02-14T08:23:08;8.47;;;5.30;;
11582;SDS011;34299;50.820;4.548;2024-02-14T08:25:37;7.13;;;5.23;;
11582;SDS011;34299;50.820;4.548;2024-02-14T08:28:04;9.40;;;5.60;;
11582;SDS011;34299;50.820;4.548;2024-02-14T08:30:32;6.07;;;4.90;;
11582;SDS011;34299;50.820;4.548;2024-02-14T08:32:59;9.00;;;5.97;;
11582;SDS011;34299;50.820;4.548;2024-02-14T08:35:26;6.83;;;5.27;;
11582;SDS011;34299;50.820;4.548;2024-02-14T08:37:53;9.70;;;5.90;;
11582;SDS011;34299;50.820;4.548;2024-02-14T08:40:20;7.33;;;5.60;;
11582;SDS011;34299;50.820;4.548;2024-02-14T08:42:48;7.60;;;5.47;;
11582;SDS011;34299;50.820;4.548;2024-02-14T08:45:15;8.50;;;5.80;;
11582;SDS011;34299;50.820;4.548;2024-02-14T08:47:43;10.13;;;5.57;;
11582;SDS011;34299;50.820;4.548;2024-02-14T08:50:10;10.70;;;6.43;;
11582;SDS011;34299;50.820;4.548;2024-02-14T08:52:37;10.47;;;6.63;;
11582;SDS011;34299;50.820;4.548;2024-02-14T08:55:05;7.73;;;5.67;;
11582;SDS011;34299;50.820;4.548;2024-02-14T08:57:39;7.70;;;5.90;;
11582;SDS011;34299;50.820;4.548;2024-02-14T09:00:08;6.30;;;5.33;;
11582;SDS011;34299;50.820;4.548;2024-02-14T09:02:38;9.03;;;5.80;;
11582;SDS011;34299;50.820;4.548;2024-02-14T09:05:05;9.33;;;6.00;;
11582;SDS011;34299;50.820;4.548;2024-02-14T09:07:32;8.87;;;5.53;;
11582;SDS011;34299;50.820;4.548;2024-02-14T09:09:59;9.07;;;5.70;;
11582;SDS011;34299;50.820;4.548;2024-02-14T09:12:26;12.30;;;6.13;;
11582;SDS011;34299;50.820;4.548;2024-02-14T09:14:53;12.03;;;7.30;;
11582;SDS011;34299;50.820;4.548;2024-02-14T09:17:23;9.33;;;6.53;;
11582;SDS011;34299;50.820;4.548;2024-02-14T09:19:50;6.97;;;5.40;;
11582;SDS011;34299;50.820;4.548;2024-02-14T09:22:17;12.33;;;6.90;;
11582;SDS011;34299;50.820;4.548;2024-02-14T09:24:46;8.13;;;5.87;;
11582;SDS011;34299;50.820;4.548;2024-02-14T09:27:13;9.30;;;5.73;;
11582;SDS011;34299;50.820;4.548;2024-02-14T09:29:40;12.73;;;7.43;;
11582;SDS011;34299;50.820;4.548;2024-02-14T09:32:07;8.27;;;6.17;;
11582;SDS011;34299;50.820;4.548;2024-02-14T09:34:36;11.87;;;6.57;;
11582;SDS011;34299;50.820;4.548;2024-02-14T09:37:03;10.87;;;6.60;;
11582;SDS011;34299;50.820;4.548;2024-02-14T09:39:31;9.87;;;6.67;;
11582;SDS011;34299;50.820;4.548;2024-02-14T09:42:01;8.10;;;5.87;;
11582;SDS011;34299;50.820;4.548;2024-02-14T09:44:34;10.00;;;6.10;;
11582;SDS011;34299;50.820;4.548;2024-02-14T09:47:04;7.77;;;5.93;;
11582;SDS011;34299;50.820;4.548;2024-02-14T09:49:32;8.57;;;5.73;;
11582;SDS011;34299;50.820;4.548;2024-02-14T09:52:02;8.97;;;5.53;;
11582;SDS011;34299;50.820;4.548;2024-02-14T09:54:30;8.00;;;5.10;;
11582;SDS011;34299;50.820;4.548;2024-02-14T09:56:59;7.50;;;4.50;;
11582;SDS011;34299;50.820;4.548;2024-02-14T09:59:28;5.60;;;4.27;;
11582;SDS011;34299;50.820;4.548;2024-02-14T10:01:56;7.70;;;4.97;;
11582;SDS011;34299;50.820;4.548;2024-02-14T10:04:23;5.43;;;4.20;;
11582;SDS011;34299;50.820;4.548;2024-02-14T10:06:50;6.53;;;4.53;;
11582;SDS011;34299;50.820;4.548;2024-02-14T10:09:22;6.80;;;4.40;;
11582;SDS011;34299;50.820;4.548;2024-02-14T10:11:50;8.07;;;4.20;;
11582;SDS011;34299;50.820;4.548;2024-02-14T10:14:17;6.60;;;3.97;;
11582;SDS011;34299;50.820;4.548;2024-02-14T10:16:44;5.97;;;4.23;;
11582;SDS011;34299;50.820;4.548;2024-02-14T10:19:15;5.93;;;4.33;;
11582;SDS011;34299;50.820;4.548;2024-02-14T10:21:42;6.33;;;4.43;;
11582;SDS011;34299;50.820;4.548;2024-02-14T10:24:09;5.47;;;4.03;;
11582;SDS011;34299;50.820;4.548;2024-02-14T10:26:38;5.33;;;4.13;;
11582;SDS011;34299;50.820;4.548;2024-02-14T10:29:05;6.93;;;4.07;;
11582;SDS011;34299;50.820;4.548;2024-02-14T10:31:35;6.33;;;3.97;;
11582;SDS011;34299;50.820;4.548;2024-02-14T10:34:02;4.77;;;3.80;;
11582;SDS011;34299;50.820;4.548;2024-02-14T10:36:31;3.90;;;3.47;;
11582;SDS011;34299;50.820;4.548;2024-02-14T10:39:00;6.30;;;3.20;;
11582;SDS011;34299;50.820;4.548;2024-02-14T10:41:29;4.00;;;3.33;;
11582;SDS011;34299;50.820;4.548;2024-02-14T10:44:02;3.97;;;3.27;;
11582;SDS011;34299;50.820;4.548;2024-02-14T10:46:31;4.77;;;3.40;;
11582;SDS011;34299;50.820;4.548;2024-02-14T10:49:02;4.00;;;3.20;;
11582;SDS011;34299;50.820;4.548;2024-02-14T10:51:30;3.60;;;3.00;;
11582;SDS011;34299;50.820;4.548;2024-02-14T10:54:00;3.20;;;2.60;;
11582;SDS011;34299;50.820;4.548;2024-02-14T10:56:31;4.27;;;3.30;;
11582;SDS011;34299;50.820;4.548;2024-02-14T10:58:58;4.07;;;3.17;;
11582;SDS011;34299;50.820;4.548;2024-02-14T11:01:28;4.43;;;2.90;;
11582;SDS011;34299;50.820;4.548;2024-02-14T11:03:58;3.60;;;2.70;;
11582;SDS011;34299;50.820;4.548;2024-02-14T11:06:26;3.77;;;2.40;;
11582;SDS011;34299;50.820;4.548;2024-02-14T11:08:57;2.53;;;2.00;;
11582;SDS011;34299;50.820;4.548;2024-02-14T11:11:28;3.20;;;2.50;;
11582;SDS011;34299;50.820;4.548;2024-02-14T11:13:55;3.93;;;2.50;;
11582;SDS011;34299;50.820;4.548;2024-02-14T11:16:26;2.47;;;2.20;;
11582;SDS011;34299;50.820;4.548;2024-02-14T11:18:54;2.80;;;2.03;;
11582;SDS011;34299;50.820;4.548;2024-02-14T11:21:31;2.87;;;2.00;;
11582;SDS011;34299;50.820;4.548;2024-02-14T11:24:06;2.53;;;1.90;;
11582;SDS011;34299;50.820;4.548;2024-02-14T11:26:39;3.17;;;1.87;;
11582;SDS011;34299;50.820;4.548;2024-02-14T11:29:13;2.40;;;2.20;;
11582;SDS011;34299;50.820;4.548;2024-02-14T11:31:42;1.60;;;1.50;;
11582;SDS011;34299;50.820;4.548;2024-02-14T11:34:11;2.47;;;2.07;;
11582;SDS011;34299;50.820;4.548;2024-02-14T11:36:39;2.87;;;2.17;;
11582;SDS011;34299;50.820;4.548;2024-02-14T11:39:08;2.47;;;2.27;;
11582;SDS011;34299;50.820;4.548;2024-02-14T11:41:37;2.43;;;2.03;;
11582;SDS011;34299;50.820;4.548;2024-02-14T11:44:05;2.47;;;2.27;;
11582;SDS011;34299;50.820;4.548;2024-02-14T11:46:32;3.67;;;1.60;;
11582;SDS011;34299;50.820;4.548;2024-02-14T11:49:01;2.13;;;1.87;;
11582;SDS011;34299;50.820;4.548;2024-02-14T11:51:30;2.77;;;1.97;;
11582;SDS011;34299;50.820;4.548;2024-02-14T11:53:57;1.67;;;1.57;;
11582;SDS011;34299;50.820;4.548;2024-02-14T11:56:29;2.30;;;2.00;;
11582;SDS011;34299;50.820;4.548;2024-02-14T11:58:59;3.67;;;2.07;;
11582;SDS011;34299;50.820;4.548;2024-02-14T12:01:28;3.60;;;2.30;;
11582;SDS011;34299;50.820;4.548;2024-02-14T12:03:57;3.13;;;2.13;;
11582;SDS011;34299;50.820;4.548;2024-02-14T12:06:27;4.00;;;2.17;;
11582;SDS011;34299;50.820;4.548;2024-02-14T12:08:56;2.47;;;2.27;;
11582;SDS011;34299;50.820;4.548;2024-02-14T12:11:26;3.47;;;2.47;;
11582;SDS011;34299;50.820;4.548;2024-02-14T12:13:54;4.60;;;3.00;;
11582;SDS011;34299;50.820;4.548;2024-02-14T12:16:21;4.00;;;3.10;;
11582;SDS011;34299;50.820;4.548;2024-02-14T12:18:49;3.23;;;2.70;;
11582;SDS011;34299;50.820;4.548;2024-02-14T12:21:33;4.53;;;2.87;;
11582;SDS011;34299;50.820;4.548;2024-02-14T12:24:01;5.10;;;2.70;;
11582;SDS011;34299;50.820;4.548;2024-02-14T12:26:29;5.30;;;2.83;;
11582;SDS011;34299;50.820;4.548;2024-02-14T12:28:57;4.33;;;3.10;;
11582;SDS011;34299;50.820;4.548;2024-02-14T12:31:24;4.43;;;2.77;;
11582;SDS011;34299;50.820;4.548;2024-02-14T12:33:51;4.57;;;3.00;;
11582;SDS011;34299;50.820;4.548;2024-02-14T12:36:20;6.00;;;3.40;;
11582;SDS011;34299;50.820;4.548;2024-02-14T12:38:49;5.50;;;3.60;;
11582;SDS011;34299;50.820;4.548;2024-02-14T12:41:16;3.70;;;3.23;;
11582;SDS011;34299;50.820;4.548;2024-02-14T12:43:42;8.17;;;3.90;;
11582;SDS011;34299;50.820;4.548;2024-02-14T12:46:09;5.33;;;3.67;;
11582;SDS011;34299;50.820;4.548;2024-02-14T12:48:36;4.27;;;3.57;;
11582;SDS011;34299;50.820;4.548;2024-02-14T12:51:03;7.50;;;3.97;;
11582;SDS011;34299;50.820;4.548;2024-02-14T12:53:31;6.23;;;3.40;;
11582;SDS011;34299;50.820;4.548;2024-02-14T12:55:59;4.70;;;3.83;;
11582;SDS011;34299;50.820;4.548;2024-02-14T12:58:26;6.00;;;4.50;;
11582;SDS011;34299;50.820;4.548;2024-02-14T13:00:53;8.83;;;4.47;;
11582;SDS011;34299;50.820;4.548;2024-02-14T13:03:20;7.70;;;4.60;;
11582;SDS011;34299;50.820;4.548;2024-02-14T13:05:47;6.23;;;3.87;;
11582;SDS011;34299;50.820;4.548;2024-02-14T13:08:15;7.17;;;4.10;;
11582;SDS011;34299;50.820;4.548;2024-02-14T13:10:43;4.57;;;3.87;;
11582;SDS011;34299;50.820;4.548;2024-02-14T13:13:11;5.83;;;3.70;;
11582;SDS011;34299;50.820;4.548;2024-02-14T13:15:39;5.30;;;3.47;;
11582;SDS011;34299;50.820;4.548;2024-02-14T13:18:08;5.20;;;3.30;;
11582;SDS011;34299;50.820;4.548;2024-02-14T13:20:35;4.90;;;3.73;;
11582;SDS011;34299;50.820;4.548;2024-02-14T13:23:03;6.63;;;3.07;;
11582;SDS011;34299;50.820;4.548;2024-02-14T13:25:33;5.83;;;3.30;;
11582;SDS011;34299;50.820;4.548;2024-02-14T13:28:01;5.33;;;3.23;;
11582;SDS011;34299;50.820;4.548;2024-02-14T13:30:29;4.63;;;3.30;;
11582;SDS011;34299;50.820;4.548;2024-02-14T13:32:56;5.57;;;3.00;;
11582;SDS011;34299;50.820;4.548;2024-02-14T13:35:23;4.90;;;3.27;;
11582;SDS011;34299;50.820;4.548;2024-02-14T13:37:50;4.33;;;3.17;;
11582;SDS011;34299;50.820;4.548;2024-02-14T13:40:17;4.60;;;3.07;;
11582;SDS011;34299;50.820;4.548;2024-02-14T13:42:44;4.23;;;3.13;;
11582;SDS011;34299;50.820;4.548;2024-02-14T13:45:11;5.17;;;2.93;;
11582;SDS011;34299;50.820;4.548;2024-02-14T13:47:39;3.20;;;2.43;;
11582;SDS011;34299;50.820;4.548;2024-02-14T13:50:07;4.53;;;3.13;;
11582;SDS011;34299;50.820;4.548;2024-02-14T13:52:35;3.63;;;3.10;;
11582;SDS011;34299;50.820;4.548;2024-02-14T13:55:02;4.33;;;3.00;;
11582;SDS011;34299;50.820;4.548;2024-02-14T13:57:30;4.03;;;2.80;;
11582;SDS011;34299;50.820;4.548;2024-02-14T13:59:57;4.33;;;2.87;;
11582;SDS011;34299;50.820;4.548;2024-02-14T14:02:24;2.73;;;2.50;;
11582;SDS011;34299;50.820;4.548;2024-02-14T14:04:52;4.23;;;2.70;;
11582;SDS011;34299;50.820;4.548;2024-02-14T14:07:20;4.53;;;2.70;;
11582;SDS011;34299;50.820;4.548;2024-02-14T14:09:48;4.17;;;2.40;;
11582;SDS011;34299;50.820;4.548;2024-02-14T14:12:15;4.87;;;3.00;;
11582;SDS011;34299;50.820;4.548;2024-02-14T14:14:42;4.80;;;2.60;;
11582;SDS011;34299;50.820;4.548;2024-02-14T14:17:09;4.40;;;2.47;;
11582;SDS011;34299;50.820;4.548;2024-02-14T14:19:36;5.40;;;3.00;;
11582;SDS011;34299;50.820;4.548;2024-02-14T14:22:05;5.33;;;3.07;;
11582;SDS011;34299;50.820;4.548;2024-02-14T14:24:31;4.47;;;2.70;;
11582;SDS011;34299;50.820;4.548;2024-02-14T14:26:58;5.30;;;3.10;;
11582;SDS011;34299;50.820;4.548;2024-02-14T14:29:25;4.20;;;2.60;;
11582;SDS011;34299;50.820;4.548;2024-02-14T14:31:53;4.67;;;2.83;;
11582;SDS011;34299;50.820;4.548;2024-02-14T14:34:20;6.90;;;2.70;;
11582;SDS011;34299;50.820;4.548;2024-02-14T14:36:47;3.73;;;2.73;;
11582;SDS011;34299;50.820;4.548;2024-02-14T14:39:16;3.83;;;2.50;;
11582;SDS011;34299;50.820;4.548;2024-02-14T14:41:44;4.63;;;2.87;;
11582;SDS011;34299;50.820;4.548;2024-02-14T14:44:11;4.87;;;2.90;;
11582;SDS011;34299;50.820;4.548;2024-02-14T14:46:38;3.90;;;2.47;;
11582;SDS011;34299;50.820;4.548;2024-02-14T14:49:07;11.07;;;2.83;;